Time;durP1;ratioP1;P1;durP2;ratioP2;P2;SDS_P1;SDS_P2;PMS_P1;PMS_P2;Temp;Humidity;BMP_temperature;BMP_pressure;BME280_temperature;BME280_humidity;BME280_pressure;Samples;Min_cycle;Max_cycle;Signal;HPM_P1;HPM_P2
2021/06/24 00:07:33;;;;;;;12.45;10.18;;;;;;;19.29;74.33;100527.31;20647494;28;20054;-69
2021/06/24 00:17:34;;;;;;;15.45;11.23;;;;;;;19.09;76.25;100539.75;20648065;28;20460;-69
2021/06/24 00:27:36;;;;;;;14.77;11.93;;;;;;;18.92;78.76;100539.72;20653303;28;20050;-69
2021/06/24 00:37:40;;;;;;;15.80;12.27;;;;;;;18.77;80.36;100548.41;20664900;28;20495;-69
2021/06/24 00:47:42;;;;;;;15.70;12.73;;;;;;;18.71;80.15;100547.75;20660703;28;20512;-69
2021/06/24 00:57:45;;;;;;;15.50;12.88;;;;;;;18.73;80.64;100546.81;20659219;28;20054;-69
2021/06/24 01:07:47;;;;;;;21.00;15.18;;;;;;;18.15;84.23;100540.59;20658391;28;20034;-69
2021/06/24 01:17:49;;;;;;;18.70;12.65;;;;;;;17.49;89.82;100531.97;20658728;28;20077;-69
2021/06/24 01:27:58;;;;;;;31.45;23.33;;;;;;;17.14;92.00;100549.31;20658071;28;20042;-69
2021/06/24 01:38:04;;;;;;;33.65;25.45;;;;;;;17.22;92.96;100575.47;20655633;28;20085;-69
2021/06/24 01:48:05;;;;;;;14.60;9.40;;;;;;;17.11;92.37;100597.94;20654831;28;20046;-69
2021/06/24 01:58:12;;;;;;;8.27;5.45;;;;;;;16.73;92.79;100638.22;20655347;28;20053;-69
2021/06/24 02:08:16;;;;;;;6.53;4.05;;;;;;;16.54;92.76;100611.56;20654323;28;20071;-69
2021/06/24 02:18:18;;;;;;;5.60;3.40;;;;;;;16.24;92.50;100595.00;20647274;28;20093;-69
2021/06/24 02:28:20;;;;;;;5.43;2.63;;;;;;;16.21;93.10;100558.16;20653515;28;20077;-69
2021/06/24 02:38:21;;;;;;;5.53;2.80;;;;;;;16.06;93.23;100522.59;20652386;28;20046;-69
2021/06/24 02:48:23;;;;;;;5.60;2.30;;;;;;;15.72;93.44;100581.03;20650696;28;20049;-68
2021/06/24 02:58:25;;;;;;;5.20;2.65;;;;;;;15.81;93.77;100586.84;20649808;28;20548;-68
2021/06/24 03:08:27;;;;;;;5.63;2.55;;;;;;;15.52;94.00;100585.16;20647273;28;20416;-68
2021/06/24 03:18:29;;;;;;;6.85;2.33;;;;;;;15.18;93.02;100573.94;20648562;28;20046;-68
2021/06/24 03:28:31;;;;;;;3.75;2.05;;;;;;;15.09;92.99;100567.19;20648553;28;20076;-69
2021/06/24 03:38:32;;;;;;;4.55;2.10;;;;;;;14.93;92.76;100548.34;20647574;28;20043;-68
2021/06/24 03:48:35;;;;;;;4.10;2.00;;;;;;;14.95;93.68;100522.81;20647879;28;20051;-68
2021/06/24 03:58:37;;;;;;;5.57;2.25;;;;;;;15.00;93.47;100507.72;20650277;28;20046;-69
2021/06/24 04:08:39;;;;;;;4.97;2.45;;;;;;;15.04;94.17;100514.63;20661966;28;20104;-69
2021/06/24 04:18:43;;;;;;;5.35;2.63;;;;;;;15.13;94.17;100514.28;20662168;28;20046;-69
2021/06/24 04:28:44;;;;;;;5.95;2.83;;;;;;;15.48;94.34;100546.59;20660785;28;20393;-69
2021/06/24 04:38:46;;;;;;;6.22;3.50;;;;;;;15.67;94.44;100536.31;20661382;28;20050;-69
2021/06/24 04:48:48;;;;;;;5.38;3.28;;;;;;;15.65;93.55;100519.63;20661101;28;20048;-69
2021/06/24 04:58:50;;;;;;;7.20;3.80;;;;;;;15.75;93.52;100517.53;20660665;28;20562;-70
2021/06/24 05:08:52;;;;;;;5.85;3.25;;;;;;;15.87;94.08;100538.25;20658723;28;20042;-70
2021/06/24 05:18:53;;;;;;;7.57;3.80;;;;;;;15.88;94.27;100529.41;20656628;28;20455;-69
2021/06/24 05:28:55;;;;;;;7.03;3.78;;;;;;;15.91;93.38;100518.75;20658518;28;20050;-69
2021/06/24 05:38:58;;;;;;;8.48;3.42;;;;;;;16.06;93.14;100512.91;20656174;28;20050;-69
2021/06/24 05:48:59;;;;;;;4.90;2.92;;;;;;;16.13;93.18;100530.22;20656689;28;20053;-69
2021/06/24 05:59:03;;;;;;;6.78;3.40;;;;;;;16.12;93.07;100523.22;20654846;28;20109;-69
2021/06/24 06:09:06;;;;;;;5.73;3.20;;;;;;;16.11;92.20;100516.22;20653764;28;20042;-69
2021/06/24 06:19:07;;;;;;;6.65;3.28;;;;;;;16.46;92.33;100521.97;20661260;28;20055;-69
2021/06/24 06:29:09;;;;;;;6.10;2.60;;;;;;;16.77;90.64;100536.66;20661293;28;20054;-69
2021/06/24 06:39:11;;;;;;;4.57;2.67;;;;;;;16.87;90.21;100548.63;20658416;28;20566;-69
2021/06/24 06:49:12;;;;;;;5.78;3.58;;;;;;;16.94;89.56;100539.53;20659866;28;20069;-69
2021/06/24 06:59:14;;;;;;;6.63;4.20;;;;;;;16.78;90.29;100549.84;20659469;28;20077;-69
2021/06/24 07:09:16;;;;;;;7.45;4.80;;;;;;;17.43;89.75;100543.66;20646031;28;20042;-68
2021/06/24 07:19:18;;;;;;;8.00;5.15;;;;;;;17.74;87.64;100541.56;20659166;28;20051;-68
2021/06/24 07:29:20;;;;;;;9.15;6.00;;;;;;;17.96;86.82;100539.69;20662076;28;20043;-69
2021/06/24 07:39:22;;;;;;;9.88;7.03;;;;;;;17.57;86.15;100532.50;20657857;28;20085;-69
2021/06/24 07:49:24;;;;;;;13.55;9.25;;;;;;;18.08;86.08;100536.50;20675178;28;20056;-68
2021/06/24 07:59:25;;;;;;;14.70;10.95;;;;;;;18.42;82.26;100535.81;20674247;28;20046;-68
2021/06/24 08:09:27;;;;;;;12.15;9.73;;;;;;;18.89;80.63;100550.50;20672733;28;20060;-68
2021/06/24 08:19:29;;;;;;;13.95;9.15;;;;;;;18.58;81.92;100562.50;20672375;28;20077;-68
2021/06/24 08:29:30;;;;;;;13.05;10.38;;;;;;;18.84;80.58;100555.16;20672581;28;20051;-69
2021/06/24 08:39:32;;;;;;;14.40;10.52;;;;;;;18.54;80.13;100568.91;20670152;28;20097;-69
2021/06/24 08:49:37;;;;;;;12.40;9.10;;;;;;;18.51;80.75;100571.66;20670990;28;20046;-69
2021/06/24 08:59:40;;;;;;;12.57;9.82;;;;;;;18.78;79.03;100560.72;20669945;28;20081;-69
2021/06/24 09:09:55;;;;;;;13.00;9.90;;;;;;;19.64;77.22;100560.97;20668133;28;20228;-69
2021/06/24 09:19:57;;;;;;;14.63;10.80;;;;;;;20.28;73.14;100558.56;20648264;28;20047;-69
2021/06/24 09:30:10;;;;;;;12.85;10.13;;;;;;;20.71;70.46;100559.78;20667880;28;20059;-68
2021/06/24 09:40:12;;;;;;;13.90;11.23;;;;;;;20.64;69.58;100553.91;20663245;28;20061;-70
2021/06/24 09:50:18;;;;;;;11.75;9.88;;;;;;;20.66;70.03;100545.88;20666157;28;20050;-70
2021/06/24 10:00:20;;;;;;;13.15;10.63;;;;;;;20.97;69.94;100539.66;20662551;28;20054;-70
2021/06/24 10:10:23;;;;;;;14.02;10.93;;;;;;;20.95;68.34;100537.09;20663541;28;20411;-70
2021/06/24 10:20:31;;;;;;;13.82;10.15;;;;;;;20.84;68.28;100522.66;20663848;28;20419;-70
2021/06/24 10:30:40;;;;;;;13.40;11.48;;;;;;;21.25;69.37;100523.81;20661962;28;20046;-70
2021/06/24 10:41:02;;;;;;;12.73;10.40;;;;;;;21.90;65.09;100507.56;20662135;28;20050;-70
2021/06/24 10:51:07;;;;;;;13.98;8.68;;;;;;;22.73;64.10;100489.91;20661691;28;20440;-70
2021/06/24 11:01:09;;;;;;;10.55;8.18;;;;;;;22.49;62.62;100496.81;20662385;28;20467;-70
2021/06/24 11:11:17;;;;;;;9.65;8.30;;;;;;;22.02;64.20;100497.94;20654181;28;20416;-69
2021/06/24 11:21:28;;;;;;;13.98;9.85;;;;;;;22.39;63.87;100495.69;20656281;28;20460;-69
2021/06/24 11:31:33;;;;;;;11.75;9.50;;;;;;;21.88;65.91;100490.78;20658794;28;20152;-69
2021/06/24 11:41:35;;;;;;;12.15;8.88;;;;;;;21.75;66.70;100506.69;20658002;28;20050;-69
2021/06/24 12:03:03;;;;;;;10.68;8.70;;;;;;;21.20;71.64;100491.28;20658371;28;20047;-69
2021/06/24 12:12:23;;;;;;;12.95;9.85;;;;;;;21.25;74.28;100512.31;20655967;28;20058;-69
2021/06/24 12:22:46;;;;;;;9.95;8.73;;;;;;;21.51;70.71;100489.50;20641393;28;20515;-69
2021/06/24 12:32:55;;;;;;;9.88;8.23;;;;;;;21.52;70.84;100477.91;20630803;28;20039;-69
2021/06/24 12:42:59;;;;;;;10.70;8.43;;;;;;;21.48;70.54;100434.59;20632455;28;20097;-69
2021/06/24 12:53:48;;;;;;;13.48;9.00;;;;;;;21.57;73.06;100459.84;20670201;28;20488;-70
2021/06/24 13:03:55;;;;;;;10.38;7.82;;;;;;;21.71;70.16;100465.19;20668640;28;20097;-70
2021/06/24 13:14:08;;;;;;;9.07;6.90;;;;;;;21.44;71.34;100454.38;20659497;28;20050;-70
2021/06/24 13:24:12;;;;;;;11.68;8.20;;;;;;;21.39;76.59;100468.94;20653220;28;20046;-69
2021/06/24 13:34:16;;;;;;;11.90;9.88;;;;;;;21.36;76.74;100477.94;20609487;28;20054;-70
2021/06/24 13:44:20;;;;;;;13.57;10.40;;;;;;;21.67;73.52;100492.97;20615122;28;20047;-69
2021/06/24 13:54:24;;;;;;;13.38;11.38;;;;;;;21.85;71.36;100487.47;20665610;28;20085;-69
2021/06/24 14:04:26;;;;;;;13.15;11.43;;;;;;;21.85;69.73;100509.66;20646118;28;20101;-69
2021/06/24 14:14:28;;;;;;;12.07;10.48;;;;;;;22.55;67.52;100507.09;20662012;28;20129;-69
2021/06/24 14:24:32;;;;;;;10.68;9.50;;;;;;;22.93;66.49;100495.78;20602059;28;20050;-69
2021/06/24 14:34:34;;;;;;;8.50;7.07;;;;;;;22.95;66.04;100500.09;20547398;28;20125;-70
2021/06/24 14:44:36;;;;;;;7.00;4.45;;;;;;;22.83;61.85;100484.81;20499215;28;20133;-69
2021/06/24 14:54:37;;;;;;;5.15;3.92;;;;;;;22.69;62.90;100487.53;20500485;28;20465;-69
2021/06/24 15:04:39;;;;;;;3.63;2.20;;;;;;;23.46;59.94;100468.16;20581725;28;20476;-69
2021/06/24 15:14:41;;;;;;;4.85;2.47;;;;;;;23.46;61.54;100469.97;20623025;28;20521;-69
2021/06/24 15:24:43;;;;;;;4.70;2.33;;;;;;;20.67;69.79;100505.84;20639004;28;20054;-69
2021/06/24 15:34:44;;;;;;;4.25;2.50;;;;;;;19.91;72.23;100505.53;20658689;28;20101;-69
2021/06/24 15:44:46;;;;;;;4.40;3.00;;;;;;;20.48;70.99;100495.38;20657292;28;20047;-69
2021/06/24 15:54:48;;;;;;;6.60;3.70;;;;;;;20.48;72.11;100484.75;20647109;28;20512;-69
2021/06/24 16:04:50;;;;;;;5.80;4.45;;;;;;;20.01;73.61;100484.63;20674116;28;20493;-69
2021/06/24 16:14:51;;;;;;;7.28;5.40;;;;;;;20.03;73.64;100469.47;20672657;28;20085;-69
2021/06/24 16:24:53;;;;;;;7.15;5.07;;;;;;;20.29;73.10;100451.25;20661722;28;20057;-69
2021/06/24 16:34:54;;;;;;;7.25;5.40;;;;;;;19.73;76.07;100464.81;20670579;28;20077;-69
2021/06/24 16:44:56;;;;;;;7.47;5.10;;;;;;;19.34;77.17;100474.84;20669989;28;20543;-69
2021/06/24 16:54:58;;;;;;;11.15;6.72;;;;;;;19.37;80.67;100495.94;20659284;28;20473;-68
2021/06/24 17:04:59;;;;;;;11.38;7.35;;;;;;;18.52;84.79;100514.19;20668376;28;20101;-68
2021/06/24 17:15:06;;;;;;;11.05;7.47;;;;;;;18.75;86.40;100543.19;20666885;28;20100;-70
2021/06/24 17:25:10;;;;;;;10.60;7.97;;;;;;;19.34;84.37;100520.81;20656344;28;20042;-70
2021/06/24 17:35:12;;;;;;;10.13;8.30;;;;;;;19.41;82.89;100530.22;20667412;28;20046;-69
2021/06/24 17:45:14;;;;;;;9.43;7.47;;;;;;;19.30;83.13;100534.31;20666334;28;20042;-69
2021/06/24 17:55:16;;;;;;;9.75;7.45;;;;;;;19.48;83.24;100557.31;20654857;28;20050;-69
2021/06/24 18:05:18;;;;;;;9.98;7.18;;;;;;;19.55;81.80;100555.22;20663797;28;20182;-69
2021/06/24 18:15:21;;;;;;;9.05;6.68;;;;;;;19.63;81.47;100580.47;20662958;28;20069;-69
2021/06/24 18:25:23;;;;;;;7.85;5.35;;;;;;;19.77;79.71;100593.06;20636501;28;20050;-69
2021/06/24 18:35:24;;;;;;;9.82;6.38;;;;;;;19.23;82.63;100593.03;20661305;28;20047;-68
2021/06/24 18:45:26;;;;;;;9.80;7.60;;;;;;;19.06;83.57;100585.03;20661084;28;20050;-68
2021/06/24 18:55:28;;;;;;;10.68;7.05;;;;;;;18.79;84.82;100575.75;20643932;28;20674;-69
2021/06/24 19:05:30;;;;;;;11.15;7.63;;;;;;;18.53;85.93;100580.41;20644123;28;20038;-69
2021/06/24 19:15:32;;;;;;;10.65;7.70;;;;;;;18.55;85.27;100593.63;20657631;28;20081;-70
2021/06/24 19:25:35;;;;;;;10.73;8.18;;;;;;;18.38;86.10;100581.97;20644356;28;20054;-69
2021/06/24 19:35:37;;;;;;;12.13;8.52;;;;;;;18.22;86.50;100580.94;20656371;28;20386;-67
2021/06/24 19:45:39;;;;;;;9.43;7.68;;;;;;;18.07;86.15;100574.53;20634378;28;20413;-68
2021/06/24 19:55:41;;;;;;;8.05;5.97;;;;;;;17.91;86.14;100587.56;20556659;28;20049;-68
2021/06/24 20:05:43;;;;;;;6.95;4.90;;;;;;;17.58;86.55;100584.56;20541139;28;20417;-68
2021/06/24 20:15:45;;;;;;;8.15;4.07;;;;;;;17.39;86.70;100604.72;20483964;28;20047;-69
2021/06/24 20:25:47;;;;;;;6.85;3.45;;;;;;;17.22;87.17;100612.50;20652729;28;20039;-68
2021/06/24 20:35:49;;;;;;;8.98;3.63;;;;;;;17.29;86.59;100628.06;20650199;28;20034;-69
2021/06/24 20:46:07;;;;;;;8.68;3.25;;;;;;;17.26;85.97;100645.88;20630516;28;20116;-70
2021/06/24 20:56:09;;;;;;;7.00;2.90;;;;;;;17.24;86.77;100653.84;20671290;28;20547;-70
2021/06/24 21:06:10;;;;;;;3.65;2.40;;;;;;;17.35;85.25;100653.44;20669698;28;20038;-70
2021/06/24 21:16:12;;;;;;;6.72;2.45;;;;;;;17.37;85.98;100659.53;20658070;28;20413;-70
2021/06/24 21:26:14;;;;;;;7.85;3.20;;;;;;;17.52;84.88;100664.22;20666281;28;20045;-70
2021/06/24 21:36:16;;;;;;;4.22;2.25;;;;;;;17.48;84.62;100669.69;20657133;28;20050;-70
2021/06/24 21:46:17;;;;;;;6.50;2.45;;;;;;;17.26;85.14;100674.97;20665524;28;20109;-70
2021/06/24 21:56:21;;;;;;;6.07;2.17;;;;;;;17.24;85.52;100679.47;20655859;28;20039;-70
2021/06/24 22:06:23;;;;;;;3.88;2.30;;;;;;;17.19;85.38;100672.56;20654089;28;20096;-69
2021/06/24 22:16:25;;;;;;;7.35;3.00;;;;;;;17.16;85.49;100675.34;20656259;28;20046;-69
2021/06/24 22:26:26;;;;;;;5.05;2.60;;;;;;;17.08;85.76;100685.34;20652795;28;20584;-69
2021/06/24 22:36:28;;;;;;;6.65;2.90;;;;;;;17.22;85.19;100689.25;20659962;28;20477;-70
2021/06/24 22:46:30;;;;;;;8.50;2.85;;;;;;;17.13;85.94;100703.69;20660747;28;20046;-69
2021/06/24 22:56:32;;;;;;;5.18;2.38;;;;;;;17.14;86.00;100706.25;20648036;28;20056;-70
2021/06/24 23:06:33;;;;;;;6.63;2.90;;;;;;;17.18;85.21;100697.28;20657023;28;20480;-70
2021/06/24 23:16:35;;;;;;;4.45;2.30;;;;;;;17.13;85.33;100693.97;20656748;28;20420;-71
2021/06/24 23:26:37;;;;;;;4.65;2.20;;;;;;;17.02;85.71;100690.88;20650478;28;20105;-70
2021/06/24 23:36:39;;;;;;;3.97;1.80;;;;;;;17.02;85.58;100696.16;20654151;28;20104;-71
2021/06/24 23:46:40;;;;;;;5.07;2.40;;;;;;;16.95;86.04;100688.50;20656798;28;20113;-70
2021/06/24 23:56:43;;;;;;;7.57;2.67;;;;;;;16.87;86.32;100694.09;20654760;28;20043;-70
